Airfield :
LOGIN :

Register | Disclaimer

   EN    FR    IT 

 










Legend :    VFR   Marginal VFR   IFR   Intensive IFR   Very Intensive IFR
Visi :
Ceiling :
>= 8 km
>= 3000ft
5 to 8 km
1000 to 3000 ft
1500m to 5 km
500 to 1000 ft
800 to 1500m
200 to 500 ft
< 800m
< 200 ft
Symbols :   Thunderstorms  Fog  Heavy snow  Heavy precipitations  Wind > 20 kt
SIGMETs :     Misc.  Thunderstorms  Icing  Turbulence  Mountain Waves  Volcanic Ashes






- Airport Elevation : 466 ft


LHPA - Pápa

CURRENT METAR :
  • 051945Z 02006KT CAVOK M03/M08 Q1036 NOSIG RMK BLU

EXPIRED METARs :
  • 051915Z 36008KT CAVOK M03/M08 Q1035 NOSIG RMK BLU
  • 051845Z 36006KT CAVOK M04/M08 Q1035 NOSIG RMK BLU
  • 051815Z 35008KT CAVOK M04/M08 Q1035 NOSIG RMK BLU
  • 051745Z 35010KT CAVOK M04/M07 Q1035 NOSIG RMK BLU
  • 051715Z 35006KT 9999 FEW033 M03/M08 Q1035 NOSIG RMK BLU

TAF TAF LHPA
Valid from the 05 at 18:00 until the 06 at 18:00 UTC


051715Z 0518/0618 35008KT CAVOK
TEMPO 0608/0616 9999 SCT030 BKN200
BECMG 0612/0616 VRB03KT



MET'MAP, your aeronautical weather chart ! - Copyright ORBIFLY December 2007 - Disclaimer

ORBIFLY MET'MAP TEAM :

Programming & Development : Alexandra Zaïnal
Original concept : Baudouin d'Aumeries
Technical & hardware support : Manuel Goepfert
Assistance : Marc-Olivier Méhu




SOURCES & CREDITS :

   NOAA